Time;durP1;ratioP1;P1;durP2;ratioP2;P2;SDS_P1;SDS_P2;PMS_P1;PMS_P2;Temp;Humidity;BMP_temperature;BMP_pressure;BME280_temperature;BME280_humidity;BME280_pressure;Samples;Min_cycle;Max_cycle;Signal;HPM_P1;HPM_P2
2023/04/06 00:00:51;;;;;;;13.60;6.63;;;;;;;-1.50;100.00;96594.41;5036170;28;20469;-74
2023/04/06 00:03:17;;;;;;;8.93;6.67;;;;;;;-1.66;100.00;96601.25;5030515;28;20875;-73
2023/04/06 00:05:44;;;;;;;6.07;5.50;;;;;;;-2.04;100.00;96519.16;5035848;28;20483;-73
2023/04/06 00:08:11;;;;;;;8.67;5.30;;;;;;;-1.59;100.00;96560.38;5067526;28;20471;-73
2023/04/06 00:10:38;;;;;;;5.93;5.43;;;;;;;-1.75;100.00;96563.03;5035767;28;20798;-73
2023/04/06 00:13:05;;;;;;;7.70;5.80;;;;;;;-1.70;100.00;96587.22;5047164;28;20441;-73
2023/04/06 00:15:33;;;;;;;9.30;5.20;;;;;;;-1.96;100.00;96573.16;5052311;28;20432;-73
2023/04/06 00:17:59;;;;;;;12.70;6.13;;;;;;;-2.12;100.00;96576.56;5033508;28;20452;-73
2023/04/06 00:20:26;;;;;;;5.73;5.00;;;;;;;-2.02;100.00;96573.31;5052269;28;20447;-73
2023/04/06 00:22:53;;;;;;;6.27;5.20;;;;;;;-1.98;100.00;96564.06;5048626;28;20540;-73
2023/04/06 00:25:20;;;;;;;5.70;5.13;;;;;;;-1.72;100.00;96596.25;5055319;28;20468;-73
2023/04/06 00:27:47;;;;;;;5.80;5.37;;;;;;;-1.96;100.00;96564.59;5037153;28;20441;-73
2023/04/06 00:30:14;;;;;;;5.50;5.00;;;;;;;-2.02;100.00;96571.50;5055166;28;21060;-73
2023/04/06 00:32:41;;;;;;;7.67;4.87;;;;;;;-1.94;100.00;96586.66;5070532;28;21047;-73
2023/04/06 00:35:08;;;;;;;6.93;5.67;;;;;;;-2.03;100.00;96569.16;5093519;28;20473;-73
2023/04/06 00:37:35;;;;;;;10.50;5.00;;;;;;;-2.34;100.00;96557.63;5075028;28;20484;-74
2023/04/06 00:40:02;;;;;;;5.53;5.03;;;;;;;-2.33;100.00;96582.50;5064997;28;20429;-73
2023/04/06 00:42:29;;;;;;;7.23;5.13;;;;;;;-2.59;100.00;96561.41;5034909;28;20457;-73
2023/04/06 00:44:59;;;;;;;6.27;5.13;;;;;;;-2.60;100.00;96556.47;5041919;28;20429;-73
2023/04/06 00:47:26;;;;;;;10.03;6.03;;;;;;;-2.43;100.00;96583.13;5070492;28;20420;-73
2023/04/06 00:49:54;;;;;;;5.47;5.00;;;;;;;-2.23;100.00;96572.28;5047449;28;21119;-74
2023/04/06 00:52:21;;;;;;;9.33;5.37;;;;;;;-2.42;100.00;96533.69;5035150;28;20497;-73
2023/04/06 00:54:49;;;;;;;5.37;4.87;;;;;;;-2.42;100.00;96554.41;5045834;28;20436;-73
2023/04/06 00:57:19;;;;;;;6.23;5.40;;;;;;;-2.27;100.00;96576.34;5054736;28;20542;-73
2023/04/06 00:59:53;;;;;;;10.10;5.33;;;;;;;-2.30;100.00;96556.91;5039067;28;20804;-73
2023/04/06 01:02:20;;;;;;;8.27;6.20;;;;;;;-2.22;100.00;96555.72;5034656;28;20465;-74
2023/04/06 01:04:49;;;;;;;10.80;6.60;;;;;;;-2.22;100.00;96573.84;5036091;28;20440;-74
2023/04/06 01:07:25;;;;;;;7.60;6.80;;;;;;;-2.57;100.00;96540.47;5059257;28;20458;-74
2023/04/06 01:10:04;;;;;;;10.87;6.10;;;;;;;-2.49;100.00;96555.59;5059573;28;20486;-74
2023/04/06 01:12:32;;;;;;;7.30;6.60;;;;;;;-2.16;100.00;96578.84;5074441;28;20462;-73
2023/04/06 01:15:02;;;;;;;9.07;7.07;;;;;;;-2.06;100.00;96578.19;5074284;28;20447;-73
2023/04/06 01:17:32;;;;;;;8.70;6.80;;;;;;;-2.36;100.00;96551.91;5058341;28;20451;-74
2023/04/06 01:20:06;;;;;;;8.20;7.27;;;;;;;-2.13;100.00;96582.78;5074358;28;20435;-73
2023/04/06 01:22:34;;;;;;;7.87;6.97;;;;;;;-2.17;100.00;96582.47;5061256;28;21005;-74
2023/04/06 01:25:02;;;;;;;7.80;7.00;;;;;;;-2.13;100.00;96578.38;5054192;28;20527;-73
2023/04/06 01:27:35;;;;;;;8.40;7.63;;;;;;;-2.20;100.00;96548.50;5054160;28;20436;-74
2023/04/06 01:30:02;;;;;;;11.93;9.00;;;;;;;-2.17;100.00;96546.19;5058511;28;20488;-74
2023/04/06 01:32:46;;;;;;;9.20;7.90;;;;;;;-2.23;100.00;96541.22;5037040;28;20464;-73
2023/04/06 01:35:18;;;;;;;9.23;7.90;;;;;;;-2.04;100.00;96575.38;5054059;28;20444;-74
2023/04/06 01:38:02;;;;;;;10.10;8.63;;;;;;;-2.07;100.00;96581.81;5072310;28;20493;-74
2023/04/06 01:40:32;;;;;;;8.53;7.20;;;;;;;-2.06;100.00;96572.25;5054185;28;20432;-74
2023/04/06 01:42:59;;;;;;;9.60;8.30;;;;;;;-2.45;100.00;96544.53;5058566;28;20453;-74
2023/04/06 01:45:32;;;;;;;8.93;7.60;;;;;;;-2.30;100.00;96575.03;5062570;28;20462;-73
2023/04/06 01:48:09;;;;;;;8.20;7.43;;;;;;;-2.55;100.00;96574.66;5045378;28;20443;-74
2023/04/06 01:50:36;;;;;;;12.93;8.27;;;;;;;-2.55;100.00;96574.66;5046914;28;20971;-73
2023/04/06 01:53:03;;;;;;;9.10;8.20;;;;;;;-2.72;100.00;96539.22;5074114;28;20439;-74
2023/04/06 01:55:30;;;;;;;8.43;6.87;;;;;;;-2.76;100.00;96530.38;5073907;28;20435;-74
2023/04/06 01:58:29;;;;;;;9.10;7.20;;;;;;;-2.59;100.00;96561.41;5086701;28;20447;-73
2023/04/06 02:00:57;;;;;;;7.50;6.77;;;;;;;-2.55;100.00;96541.00;5050438;28;20445;-74
2023/04/06 02:03:27;;;;;;;10.70;7.77;;;;;;;-2.30;100.00;96566.47;5063669;28;20551;-74
2023/04/06 02:06:03;;;;;;;16.53;8.03;;;;;;;-2.16;100.00;96568.47;5073908;28;20439;-74
2023/04/06 02:08:35;;;;;;;7.90;7.13;;;;;;;-2.10;100.00;96548.63;5073908;28;20431;-73
2023/04/06 02:11:02;;;;;;;9.03;7.10;;;;;;;-2.20;100.00;96545.91;5091895;28;20497;-74
2023/04/06 02:13:33;;;;;;;8.60;7.67;;;;;;;-2.19;100.00;96545.66;5055155;28;20452;-73
2023/04/06 02:16:02;;;;;;;7.60;6.67;;;;;;;-2.23;100.00;96510.13;5053704;28;20950;-74
2023/04/06 02:18:32;;;;;;;9.37;7.53;;;;;;;-1.90;100.00;96542.91;5053498;28;20431;-74
2023/04/06 02:20:58;;;;;;;7.90;6.83;;;;;;;-1.76;100.00;96558.88;5053548;28;20444;-74
2023/04/06 02:23:26;;;;;;;8.67;6.00;;;;;;;-1.96;100.00;96523.94;5055866;28;20464;-74
2023/04/06 02:25:52;;;;;;;11.90;6.70;;;;;;;-1.99;100.00;96521.06;5061037;28;20502;-74
2023/04/06 02:28:19;;;;;;;8.60;6.70;;;;;;;-1.75;100.00;96550.84;5047325;28;20969;-74
2023/04/06 02:30:46;;;;;;;9.47;7.47;;;;;;;-1.74;100.00;96551.63;5064116;28;20630;-74
2023/04/06 02:33:13;;;;;;;7.40;6.70;;;;;;;-1.98;100.00;96528.59;5056447;28;20487;-74
2023/04/06 02:35:44;;;;;;;7.20;6.10;;;;;;;-1.80;100.00;96554.19;5057361;28;20443;-73
2023/04/06 02:38:11;;;;;;;7.93;7.17;;;;;;;-1.88;100.00;96528.69;5046509;28;20425;-74
2023/04/06 02:40:38;;;;;;;9.37;6.60;;;;;;;-1.74;100.00;96552.41;5064932;28;20805;-74
2023/04/06 02:43:16;;;;;;;7.63;6.93;;;;;;;-1.79;100.00;96547.19;5054005;28;20453;-74
2023/04/06 02:45:44;;;;;;;8.90;6.77;;;;;;;-2.03;100.00;96496.63;5063637;28;20428;-74
2023/04/06 02:48:12;;;;;;;7.73;7.03;;;;;;;-1.84;100.00;96536.78;5052311;28;20441;-74
2023/04/06 02:50:39;;;;;;;7.33;6.73;;;;;;;-1.81;100.00;96542.25;5033255;28;20464;-74
2023/04/06 02:53:07;;;;;;;9.30;6.80;;;;;;;-1.93;100.00;96517.50;5055215;28;21024;-74
2023/04/06 02:55:36;;;;;;;6.90;6.27;;;;;;;-1.82;100.00;96529.53;5060438;28;20443;-74
2023/04/06 02:58:03;;;;;;;7.67;6.97;;;;;;;-1.72;100.00;96549.59;5061238;28;20431;-74
2023/04/06 03:00:37;;;;;;;7.97;6.53;;;;;;;-1.90;100.00;96528.13;5060405;28;20458;-74
2023/04/06 03:03:04;;;;;;;7.50;5.90;;;;;;;-1.83;100.00;96544.31;5054229;28;20480;-74
2023/04/06 03:05:31;;;;;;;7.67;6.97;;;;;;;-1.76;100.00;96548.50;5061932;28;20447;-73
2023/04/06 03:07:58;;;;;;;7.50;6.77;;;;;;;-1.68;100.00;96548.09;5042685;28;20455;-74
2023/04/06 03:10:34;;;;;;;9.97;5.90;;;;;;;-1.57;100.00;96553.16;5038465;28;20480;-74
2023/04/06 03:13:01;;;;;;;7.17;6.30;;;;;;;-1.54;100.00;96544.09;5049999;28;21038;-74
2023/04/06 03:15:54;;;;;;;6.93;6.30;;;;;;;-1.95;100.00;96516.94;5077783;28;20522;-74
2023/04/06 03:18:23;;;;;;;8.13;6.67;;;;;;;-1.75;100.00;96557.84;5072131;28;21011;-74
2023/04/06 03:20:53;;;;;;;10.63;7.47;;;;;;;-1.72;100.00;96557.38;5052353;28;20435;-74
2023/04/06 03:23:22;;;;;;;7.93;6.20;;;;;;;-1.63;100.00;96554.09;5076638;28;20512;-74
2023/04/06 03:25:54;;;;;;;5.80;5.40;;;;;;;-1.93;100.00;96518.28;5060876;28;20466;-74
2023/04/06 03:28:21;;;;;;;10.93;5.70;;;;;;;-1.84;100.00;96541.97;5076616;28;20435;-74
2023/04/06 03:30:52;;;;;;;6.77;6.17;;;;;;;-1.82;100.00;96548.47;5076210;28;20546;-73
2023/04/06 03:33:35;;;;;;;6.23;5.60;;;;;;;-1.93;100.00;96522.66;5062148;28;20447;-74
2023/04/06 03:36:02;;;;;;;6.73;6.13;;;;;;;-2.13;100.00;96531.00;5073155;28;20957;-74
2023/04/06 03:38:31;;;;;;;7.23;6.53;;;;;;;-2.11;100.00;96524.53;5040148;28;20444;-74
2023/04/06 03:40:59;;;;;;;7.80;7.10;;;;;;;-1.97;100.00;96550.88;5053676;28;20433;-74
2023/04/06 03:43:26;;;;;;;8.80;8.00;;;;;;;-1.97;100.00;96529.38;5061054;28;20515;-74
2023/04/06 03:45:54;;;;;;;9.73;7.10;;;;;;;-1.81;100.00;96552.63;5067978;28;20437;-74
2023/04/06 03:48:20;;;;;;;9.77;7.63;;;;;;;-2.12;100.00;96528.16;5052763;28;20491;-74
2023/04/06 03:50:47;;;;;;;12.53;8.40;;;;;;;-1.98;100.00;96548.53;5051192;28;20465;-74
2023/04/06 03:53:14;;;;;;;8.90;7.37;;;;;;;-2.16;100.00;96521.09;5044659;28;20483;-74
2023/04/06 03:55:41;;;;;;;7.63;6.93;;;;;;;-2.10;100.00;96559.78;5051341;28;20490;-74
2023/04/06 03:58:07;;;;;;;7.47;6.87;;;;;;;-2.19;100.00;96539.69;5048123;28;20486;-74
2023/04/06 04:00:34;;;;;;;7.00;6.30;;;;;;;-2.27;100.00;96524.56;5036070;28;20536;-74
2023/04/06 04:03:02;;;;;;;7.37;6.50;;;;;;;-2.04;100.00;96546.88;5028655;28;20461;-74
2023/04/06 04:05:29;;;;;;;10.13;9.20;;;;;;;-2.20;100.00;96538.91;5051684;28;20540;-74
2023/04/06 04:07:55;;;;;;;10.70;9.60;;;;;;;-1.86;100.00;96577.69;5048871;28;20440;-74
2023/04/06 04:10:25;;;;;;;11.90;9.40;;;;;;;-2.22;100.00;96548.75;5052237;28;20472;-74
2023/04/06 04:12:52;;;;;;;9.93;8.93;;;;;;;-2.37;100.00;96530.41;5042295;28;20460;-74
2023/04/06 04:15:19;;;;;;;14.83;8.43;;;;;;;-2.04;100.00;96573.56;5048676;28;20959;-74
2023/04/06 04:17:49;;;;;;;11.53;8.33;;;;;;;-2.06;100.00;96575.63;5062097;28;20510;-74
2023/04/06 04:20:16;;;;;;;10.13;7.53;;;;;;;-2.18;100.00;96560.19;5059426;28;20442;-74
2023/04/06 04:22:43;;;;;;;12.40;10.77;;;;;;;-2.22;100.00;96556.50;5047769;28;20982;-74
2023/04/06 04:25:10;;;;;;;11.03;9.87;;;;;;;-2.17;100.00;96558.38;5052128;28;20441;-74
2023/04/06 04:27:42;;;;;;;8.90;8.07;;;;;;;-2.21;100.00;96565.06;5063771;28;20423;-74
2023/04/06 04:30:09;;;;;;;11.00;8.87;;;;;;;-2.28;100.00;96552.25;5058774;28;20470;-74
2023/04/06 04:32:36;;;;;;;10.70;7.57;;;;;;;-2.23;100.00;96567.09;5041888;28;20457;-74
2023/04/06 04:35:06;;;;;;;11.57;9.03;;;;;;;-2.74;100.00;96517.22;5055233;28;20815;-74
2023/04/06 04:37:36;;;;;;;9.47;8.50;;;;;;;-2.34;100.00;96568.75;5055164;28;20873;-74
2023/04/06 04:40:03;;;;;;;14.27;11.97;;;;;;;-2.68;100.00;96555.06;5055117;28;20803;-74
2023/04/06 04:42:39;;;;;;;12.17;10.50;;;;;;;-2.78;100.00;96531.66;5051588;28;20491;-74
2023/04/06 04:45:11;;;;;;;16.60;8.90;;;;;;;-2.55;100.00;96567.66;5060647;28;20876;-74
2023/04/06 04:47:39;;;;;;;8.83;8.00;;;;;;;-2.73;100.00;96542.84;5050984;28;20433;-74
2023/04/06 04:50:07;;;;;;;10.60;9.00;;;;;;;-2.78;100.00;96537.59;5056692;28;20456;-74
2023/04/06 04:52:37;;;;;;;13.40;9.60;;;;;;;-2.61;100.00;96541.97;5048423;28;20465;-74
2023/04/06 04:55:18;;;;;;;11.70;10.00;;;;;;;-2.45;100.00;96565.25;5048537;28;20437;-74
2023/04/06 04:57:47;;;;;;;11.80;8.77;;;;;;;-2.98;100.00;96509.59;5035407;28;20443;-74
2023/04/06 05:00:16;;;;;;;8.57;7.17;;;;;;;-2.79;100.00;96554.16;5034536;28;20475;-74
2023/04/06 05:02:44;;;;;;;7.50;6.70;;;;;;;-2.81;100.00;96529.50;5045496;28;20457;-74
2023/04/06 05:05:18;;;;;;;8.30;7.50;;;;;;;-2.71;100.00;96542.59;5068757;28;20444;-74
2023/04/06 05:07:45;;;;;;;9.63;6.77;;;;;;;-2.58;100.00;96570.75;5049111;28;20471;-74
2023/04/06 05:10:22;;;;;;;7.30;6.60;;;;;;;-2.84;100.00;96527.41;5074572;28;20455;-74
2023/04/06 05:12:53;;;;;;;6.60;6.10;;;;;;;-2.54;100.00;96582.19;5074477;28;20451;-74
2023/04/06 05:15:20;;;;;;;7.20;6.53;;;;;;;-2.57;100.00;96561.19;5074535;28;20432;-74
2023/04/06 05:17:51;;;;;;;13.23;6.90;;;;;;;-2.75;100.00;96585.50;5074200;28;20438;-74
2023/04/06 05:20:23;;;;;;;8.17;6.90;;;;;;;-2.77;100.00;96551.31;5062745;28;20544;-74
2023/04/06 05:22:50;;;;;;;10.40;9.40;;;;;;;-2.63;100.00;96575.84;5049907;28;20487;-74
2023/04/06 05:25:17;;;;;;;12.80;10.40;;;;;;;-2.73;100.00;96560.94;5037982;28;20436;-74
2023/04/06 05:27:47;;;;;;;13.37;11.63;;;;;;;-2.50;100.00;96582.50;5038199;28;20532;-74
2023/04/06 05:30:30;;;;;;;14.17;11.30;;;;;;;-2.59;100.00;96555.44;5034246;28;20468;-74
2023/04/06 05:32:57;;;;;;;13.60;11.23;;;;;;;-2.47;100.00;96580.22;5060773;28;20453;-74
2023/04/06 05:35:30;;;;;;;17.13;14.20;;;;;;;-2.36;100.00;96582.97;5061136;28;20431;-74
2023/04/06 05:38:02;;;;;;;14.10;11.67;;;;;;;-2.53;100.00;96552.72;5074296;28;20994;-74
2023/04/06 05:40:29;;;;;;;15.70;12.27;;;;;;;-2.20;100.00;96577.75;5059278;28;20428;-73
2023/04/06 05:42:56;;;;;;;19.40;14.87;;;;;;;-1.94;100.00;96596.22;5053950;28;20542;-74
2023/04/06 05:45:23;;;;;;;16.60;12.30;;;;;;;-1.75;100.00;96594.91;5034570;28;20525;-73
2023/04/06 05:47:53;;;;;;;17.17;13.30;;;;;;;-1.56;100.00;96593.59;5034493;28;20796;-73
2023/04/06 05:50:27;;;;;;;14.90;11.40;;;;;;;-1.44;100.00;96600.47;5037445;28;20461;-73
2023/04/06 05:52:55;;;;;;;16.23;10.20;;;;;;;-1.15;100.00;96608.81;5037523;28;20515;-74
2023/04/06 05:55:25;;;;;;;12.83;11.40;;;;;;;-1.17;100.00;96572.75;5053884;28;20898;-74
2023/04/06 05:58:04;;;;;;;16.37;11.23;;;;;;;-1.06;100.00;96579.59;5034121;28;20455;-74
2023/04/06 06:00:30;;;;;;;13.13;10.70;;;;;;;-0.98;100.00;96583.53;5039186;28;20459;-74
2023/04/06 06:03:06;;;;;;;13.83;9.97;;;;;;;-0.93;100.00;96568.03;5048502;28;20464;-74
2023/04/06 06:05:34;;;;;;;9.53;8.60;;;;;;;-0.56;100.00;96612.19;5057443;28;20480;-73
2023/04/06 06:08:10;;;;;;;8.07;7.27;;;;;;;-0.54;100.00;96596.34;5073781;28;20519;-74
2023/04/06 06:10:38;;;;;;;12.70;10.07;;;;;;;-0.44;100.00;96578.25;5057436;28;20546;-74
2023/04/06 06:13:06;;;;;;;14.43;10.73;;;;;;;-0.35;100.00;96587.16;5074000;28;20507;-73
2023/04/06 06:15:34;;;;;;;9.63;7.67;;;;;;;-0.34;100.00;96580.94;5057580;28;20436;-74
2023/04/06 06:18:01;;;;;;;9.60;7.50;;;;;;;-0.14;100.00;96588.06;5073733;28;20431;-73
2023/04/06 06:20:29;;;;;;;9.03;8.23;;;;;;;0.09;100.00;96610.28;5073770;28;20442;-74
2023/04/06 06:22:59;;;;;;;8.07;7.33;;;;;;;0.25;100.00;96614.50;5073607;28;20467;-74
2023/04/06 06:25:26;;;;;;;7.57;6.43;;;;;;;0.18;100.00;96580.97;5073795;28;20492;-73
2023/04/06 06:27:52;;;;;;;8.87;7.10;;;;;;;0.32;100.00;96581.28;5057538;28;20432;-74
2023/04/06 06:30:19;;;;;;;6.70;6.10;;;;;;;0.38;100.00;96593.25;5067779;28;20471;-74
2023/04/06 06:32:50;;;;;;;7.50;6.10;;;;;;;0.75;100.00;96616.53;5074600;28;21051;-73
2023/04/06 06:35:17;;;;;;;7.60;6.40;;;;;;;0.46;100.00;96586.78;5067046;28;20436;-74
2023/04/06 06:37:45;;;;;;;9.27;5.67;;;;;;;0.81;100.00;96604.34;5058277;28;20449;-73
2023/04/06 06:40:17;;;;;;;8.00;5.97;;;;;;;1.16;100.00;96627.03;5064912;28;20804;-74
2023/04/06 06:42:46;;;;;;;7.50;6.90;;;;;;;1.15;100.00;96602.03;5062981;28;20591;-74
2023/04/06 06:45:25;;;;;;;6.93;6.13;;;;;;;1.09;100.00;96603.88;5045509;28;20427;-74
2023/04/06 06:47:52;;;;;;;6.47;5.87;;;;;;;1.37;100.00;96614.84;5057203;28;20435;-74
2023/04/06 06:50:21;;;;;;;10.50;5.47;;;;;;;1.62;100.00;96609.63;5068975;28;20447;-74
2023/04/06 06:52:48;;;;;;;7.40;6.10;;;;;;;1.67;100.00;96596.59;5045751;28;20455;-74
2023/04/06 06:55:15;;;;;;;5.77;5.20;;;;;;;1.64;100.00;96623.16;5045322;28;20436;-74
2023/04/06 06:57:42;;;;;;;6.33;5.63;;;;;;;2.17;100.00;96634.06;5046030;28;20428;-74
2023/04/06 07:00:10;;;;;;;7.90;7.10;;;;;;;2.10;100.00;96648.41;5062079;28;20439;-75
2023/04/06 07:02:40;;;;;;;8.53;6.33;;;;;;;2.11;100.00;96644.75;5077161;28;20475;-74
2023/04/06 07:05:07;;;;;;;6.70;6.10;;;;;;;2.36;100.00;96622.00;5070210;28;20435;-74
2023/04/06 07:07:53;;;;;;;6.47;5.30;;;;;;;2.38;100.00;96616.50;5052394;28;20451;-74
2023/04/06 07:10:20;;;;;;;6.60;6.00;;;;;;;2.31;100.00;96627.22;5057189;28;20501;-74
2023/04/06 07:12:47;;;;;;;6.93;6.20;;;;;;;2.45;100.00;96630.06;5053391;28;20892;-75
2023/04/06 07:15:14;;;;;;;6.43;5.70;;;;;;;2.61;100.00;96628.16;5030216;28;20440;-74
2023/04/06 07:17:44;;;;;;;6.57;5.90;;;;;;;2.68;100.00;96631.28;5063308;28;20436;-74
2023/04/06 07:20:12;;;;;;;7.20;5.97;;;;;;;2.60;100.00;96603.13;5060676;28;20435;-74
2023/04/06 07:22:40;;;;;;;6.03;5.47;;;;;;;3.06;100.00;96642.03;5045687;28;20902;-74
2023/04/06 07:25:07;;;;;;;8.83;5.77;;;;;;;3.17;100.00;96639.09;5069154;28;20475;-74
2023/04/06 07:27:34;;;;;;;6.60;5.50;;;;;;;3.31;100.00;96618.38;5074414;28;20936;-74
2023/04/06 07:30:01;;;;;;;4.87;4.47;;;;;;;3.35;100.00;96642.94;5060940;28;20432;-74
2023/04/06 07:32:28;;;;;;;5.97;5.23;;;;;;;3.83;100.00;96656.16;5042911;28;20467;-74
2023/04/06 07:34:56;;;;;;;7.03;4.50;;;;;;;3.41;100.00;96601.84;5048403;28;20467;-74
2023/04/06 07:37:23;;;;;;;9.90;4.80;;;;;;;4.04;100.00;96614.91;5034931;28;20440;-74
2023/04/06 07:39:50;;;;;;;13.10;4.90;;;;;;;4.20;99.19;96655.56;5035559;28;20456;-74
2023/04/06 07:42:19;;;;;;;5.40;4.90;;;;;;;4.01;98.76;96605.78;5064200;28;21040;-74
2023/04/06 07:44:46;;;;;;;12.70;7.80;;;;;;;4.37;96.58;96645.44;5062127;28;20442;-74
2023/04/06 07:47:12;;;;;;;8.00;5.93;;;;;;;4.81;95.26;96652.28;5043648;28;20448;-74
2023/04/06 07:49:39;;;;;;;12.13;5.50;;;;;;;4.08;96.40;96590.53;5047020;28;20440;-74
2023/04/06 07:52:06;;;;;;;9.93;5.90;;;;;;;4.35;93.37;96620.59;5048683;28;20521;-74
2023/04/06 07:54:33;;;;;;;6.57;5.77;;;;;;;4.59;95.09;96625.84;5062620;28;20491;-74
2023/04/06 07:57:00;;;;;;;6.40;5.07;;;;;;;4.44;93.41;96632.81;5073986;28;20486;-74
2023/04/06 07:59:26;;;;;;;7.37;4.90;;;;;;;4.88;94.64;96602.16;5062704;28;20809;-74
2023/04/06 08:01:53;;;;;;;5.60;5.07;;;;;;;5.24;95.50;96611.09;5039435;28;20552;-75
2023/04/06 08:04:20;;;;;;;7.97;5.27;;;;;;;4.78;89.89;96618.00;5064190;28;20614;-74
2023/04/06 08:06:47;;;;;;;11.53;5.17;;;;;;;5.27;88.75;96643.81;5055258;28;20461;-74
2023/04/06 08:09:14;;;;;;;8.07;5.50;;;;;;;4.98;92.81;96605.44;5053462;28;20441;-74
2023/04/06 08:11:40;;;;;;;6.17;4.50;;;;;;;4.77;88.33;96609.38;5042489;28;20484;-74
2023/04/06 08:14:07;;;;;;;6.00;4.60;;;;;;;5.22;87.65;96628.97;5065458;28;20844;-74
2023/04/06 08:16:34;;;;;;;7.90;5.50;;;;;;;5.16;85.87;96600.47;5052554;28;20543;-74
2023/04/06 08:19:01;;;;;;;7.13;5.37;;;;;;;5.34;82.67;96645.03;5063299;28;20421;-74
2023/04/06 08:21:28;;;;;;;10.10;5.63;;;;;;;5.23;82.91;96609.53;5058782;28;20435;-74
2023/04/06 08:23:55;;;;;;;7.20;4.57;;;;;;;5.55;85.71;96608.78;5044608;28;20491;-74
2023/04/06 08:26:21;;;;;;;5.23;4.60;;;;;;;5.90;81.30;96638.97;5048937;28;20437;-75
2023/04/06 08:28:48;;;;;;;7.80;5.80;;;;;;;5.57;80.54;96617.16;5054163;28;20860;-74
2023/04/06 08:31:15;;;;;;;5.60;5.10;;;;;;;5.27;81.13;96633.34;5054092;28;20564;-75
2023/04/06 08:33:42;;;;;;;8.17;5.23;;;;;;;4.87;80.98;96592.75;5054468;28;20978;-74
2023/04/06 08:36:14;;;;;;;10.07;5.50;;;;;;;6.00;85.25;96640.59;5073227;28;20926;-75
2023/04/06 08:38:42;;;;;;;9.63;5.63;;;;;;;6.08;78.99;96632.09;5061495;28;20437;-74
2023/04/06 08:41:10;;;;;;;5.80;5.20;;;;;;;6.27;76.88;96637.25;5060461;28;20420;-74
2023/04/06 08:43:57;;;;;;;9.07;5.67;;;;;;;6.17;77.62;96622.47;5042453;28;20955;-74
2023/04/06 08:46:31;;;;;;;5.03;4.53;;;;;;;6.04;75.95;96633.72;5044407;28;20472;-74
2023/04/06 08:49:02;;;;;;;5.37;4.87;;;;;;;6.17;75.00;96650.56;5051888;28;20429;-74
2023/04/06 08:51:30;;;;;;;8.40;5.97;;;;;;;6.45;76.93;96654.78;5044506;28;20467;-74
2023/04/06 08:53:58;;;;;;;6.90;5.93;;;;;;;6.37;73.68;96636.28;5064478;28;20946;-74
2023/04/06 08:56:27;;;;;;;9.80;5.10;;;;;;;6.61;73.61;96628.22;5045899;28;20531;-74
2023/04/06 08:58:55;;;;;;;6.83;4.40;;;;;;;6.92;77.14;96642.31;5064951;28;20429;-74
2023/04/06 09:01:27;;;;;;;6.43;3.80;;;;;;;6.56;72.68;96633.59;5038814;28;20438;-75
2023/04/06 09:03:58;;;;;;;9.33;6.20;;;;;;;6.38;72.70;96624.72;5057854;28;20539;-75
2023/04/06 09:06:30;;;;;;;7.50;5.73;;;;;;;6.68;73.98;96642.53;5072599;28;20527;-74
2023/04/06 09:08:57;;;;;;;5.80;4.90;;;;;;;6.23;73.58;96599.53;5059106;28;20448;-74
2023/04/06 09:11:24;;;;;;;7.80;4.73;;;;;;;6.48;76.66;96598.28;5059934;28;20529;-75
2023/04/06 09:13:55;;;;;;;9.07;5.47;;;;;;;6.74;71.97;96640.59;5046491;28;20433;-74
2023/04/06 09:16:23;;;;;;;5.67;4.87;;;;;;;6.89;73.17;96640.28;5045607;28;20974;-75
2023/04/06 09:18:50;;;;;;;6.77;5.53;;;;;;;6.35;71.90;96581.44;5072482;28;20428;-75
2023/04/06 09:21:20;;;;;;;9.20;6.20;;;;;;;6.55;72.03;96630.19;5058631;28;20443;-75
2023/04/06 09:24:02;;;;;;;5.83;5.30;;;;;;;6.57;71.32;96599.16;5064438;28;20469;-75
2023/04/06 09:26:29;;;;;;;8.47;5.60;;;;;;;7.05;71.14;96641.50;5067716;28;20790;-75
2023/04/06 09:29:00;;;;;;;6.13;5.53;;;;;;;6.99;70.96;96626.16;5062604;28;20439;-74
2023/04/06 09:31:30;;;;;;;6.53;5.40;;;;;;;6.99;69.72;96637.44;5057205;28;20981;-75
2023/04/06 09:33:57;;;;;;;8.57;5.47;;;;;;;7.08;70.76;96619.91;5041368;28;20664;-75
2023/04/06 09:36:31;;;;;;;6.03;5.40;;;;;;;6.76;68.92;96627.91;5067216;28;20996;-75
2023/04/06 09:39:00;;;;;;;8.70;6.10;;;;;;;6.17;68.35;96569.19;5049851;28;20435;-74
2023/04/06 09:41:28;;;;;;;9.93;6.83;;;;;;;6.60;70.25;96619.56;5050576;28;20950;-74
2023/04/06 09:44:06;;;;;;;7.17;6.30;;;;;;;6.29;68.00;96622.00;5060924;28;20527;-75
2023/04/06 09:46:35;;;;;;;6.80;5.93;;;;;;;6.70;68.80;96608.88;5034171;28;20460;-75
2023/04/06 09:49:24;;;;;;;6.90;5.60;;;;;;;6.64;67.49;96617.91;5047202;28;20533;-74
2023/04/06 09:51:57;;;;;;;6.40;5.80;;;;;;;6.47;68.72;96618.50;5044413;28;20475;-75
2023/04/06 09:54:28;;;;;;;7.50;5.50;;;;;;;6.01;67.71;96588.91;5071967;28;20779;-75
2023/04/06 09:57:18;;;;;;;7.77;5.50;;;;;;;6.37;69.57;96616.06;5041998;28;20951;-75
2023/04/06 09:59:57;;;;;;;7.00;6.30;;;;;;;6.41;69.66;96601.31;5058740;28;20424;-76
2023/04/06 10:02:24;;;;;;;6.30;5.80;;;;;;;6.34;67.71;96619.28;5037500;28;20460;-75
2023/04/06 10:05:38;;;;;;;6.80;5.73;;;;;;;6.30;66.85;96620.16;5042195;28;20590;-75
2023/04/06 10:08:08;;;;;;;6.43;5.80;;;;;;;6.55;67.49;96618.91;5048669;28;20487;-75
2023/04/06 10:10:35;;;;;;;10.37;6.60;;;;;;;6.46;66.45;96606.44;5058164;28;21059;-75
2023/04/06 10:13:03;;;;;;;8.10;6.23;;;;;;;6.96;70.22;96614.38;5042814;28;20563;-75
2023/04/06 10:15:31;;;;;;;9.23;6.20;;;;;;;7.17;67.31;96617.34;5072497;28;20450;-75
2023/04/06 10:17:59;;;;;;;6.00;5.40;;;;;;;7.33;66.87;96589.59;5059605;28;20498;-76
2023/04/06 10:20:44;;;;;;;5.97;5.47;;;;;;;7.38;65.33;96596.63;5044122;28;20502;-75
2023/04/06 10:23:16;;;;;;;7.33;6.10;;;;;;;7.34;64.46;96574.59;5048482;28;20544;-75
2023/04/06 10:25:57;;;;;;;6.13;5.63;;;;;;;7.64;65.66;96594.16;5064113;28;20416;-75
2023/04/06 10:28:25;;;;;;;6.07;5.50;;;;;;;6.95;65.14;96567.38;5029255;28;20450;-75
2023/04/06 10:30:59;;;;;;;9.87;6.27;;;;;;;6.89;64.13;96579.81;5040300;28;20494;-75
2023/04/06 10:33:27;;;;;;;6.60;5.90;;;;;;;7.71;65.42;96581.34;5071578;28;20456;-75
2023/04/06 10:35:57;;;;;;;6.70;4.50;;;;;;;7.46;63.92;96582.75;5066121;28;20444;-75
2023/04/06 10:38:35;;;;;;;8.73;5.50;;;;;;;7.61;64.65;96578.97;5059734;28;20472;-75
2023/04/06 10:41:08;;;;;;;7.43;6.23;;;;;;;7.79;64.03;96571.97;5040977;28;20468;-75
2023/04/06 10:43:37;;;;;;;6.00;5.50;;;;;;;8.11;62.96;96574.28;5061048;28;20494;-75
2023/04/06 10:46:05;;;;;;;6.30;4.80;;;;;;;8.20;62.64;96588.25;5052987;28;20448;-75
2023/04/06 10:48:46;;;;;;;6.07;5.57;;;;;;;7.99;61.00;96592.50;5030859;28;20519;-75
2023/04/06 10:51:14;;;;;;;7.10;5.03;;;;;;;7.65;60.99;96587.84;5050090;28;20966;-75
2023/04/06 10:53:44;;;;;;;5.90;5.30;;;;;;;7.08;60.97;96582.31;5047426;28;20441;-75
2023/04/06 10:56:12;;;;;;;5.37;4.80;;;;;;;7.51;60.99;96585.25;5056800;28;20463;-75
2023/04/06 10:58:50;;;;;;;5.60;5.10;;;;;;;8.11;60.35;96569.00;5075111;28;20431;-75
2023/04/06 11:01:21;;;;;;;7.50;5.10;;;;;;;6.84;59.19;96579.16;5058925;28;20432;-75
2023/04/06 11:03:51;;;;;;;5.53;5.03;;;;;;;6.93;61.45;96580.78;5069870;28;20448;-75
2023/04/06 11:06:23;;;;;;;6.60;5.00;;;;;;;6.78;61.45;96560.09;5040948;28;20476;-75
2023/04/06 11:08:51;;;;;;;5.60;4.90;;;;;;;6.78;60.91;96539.06;5043665;28;20440;-75
2023/04/06 11:11:20;;;;;;;8.73;4.90;;;;;;;7.58;60.79;96576.94;5030344;28;20464;-76
2023/04/06 11:14:00;;;;;;;5.40;4.80;;;;;;;8.12;61.02;96546.84;5043888;28;20478;-75
2023/04/06 11:16:31;;;;;;;5.77;5.27;;;;;;;8.83;61.69;96566.00;5042999;28;20472;-76
2023/04/06 11:19:09;;;;;;;6.77;6.17;;;;;;;9.15;58.79;96582.44;5067416;28;20938;-75
2023/04/06 11:21:43;;;;;;;8.13;5.17;;;;;;;8.88;59.45;96575.59;5070138;28;20531;-75
2023/04/06 11:24:11;;;;;;;5.37;4.87;;;;;;;8.72;58.31;96574.50;5066054;28;20439;-75
2023/04/06 11:26:48;;;;;;;7.33;6.20;;;;;;;8.87;59.07;96576.69;5060171;28;20852;-75
2023/04/06 11:29:17;;;;;;;8.03;5.00;;;;;;;9.31;58.14;96572.97;5045985;28;20431;-75
2023/04/06 11:31:47;;;;;;;6.03;5.53;;;;;;;9.73;58.29;96566.09;5074571;28;21031;-75
2023/04/06 11:34:21;;;;;;;6.87;6.17;;;;;;;9.96;57.20;96566.66;5069018;28;20477;-75
2023/04/06 11:36:54;;;;;;;4.77;4.43;;;;;;;10.29;57.81;96552.91;5063471;28;20855;-76
2023/04/06 11:39:25;;;;;;;6.40;5.80;;;;;;;10.15;55.29;96565.50;5044897;28;20437;-77
2023/04/06 11:41:54;;;;;;;5.57;5.00;;;;;;;9.93;57.45;96556.72;5056698;28;20502;-76